Honea Path, South Carolina
Current Conditions -  °F | °C
As of 11:56 PM on Thursday 30 Oct 2014 (Local Time) from KAND Reporting Station
Clear Clear  
Wind Chill: 45°   Ceiling: Unl
Heat Index: 45°   Visibility: 10mi
Dew Point: 42°   Wind: 0mph
Humidity: 90%   Direction: NA
Pressure: 29.96"   Gusts: NA
Location:  34.45°N, 82.39°W
Report Text: KAND 310356Z AUTO 00000KT 10SM CLR 07/06 A2996 RMK AO2 SLP144 T00720056
Loading
Personal Weather Stations






























Interactive Weather Map
Tropical Storm Tracking
New forecast layout! Learn more

10-Day Weather Forecast

Advertisements
Track Severe Weather on mobile